Ellisburg, Pennsylvania
Current Conditions -  °F | °C
As of 3:56 PM on Monday 22 Dec 2014 (Local Time) from KELZ Reporting Station
Broken Clouds Broken Clouds  
Wind Chill: -5°   Ceiling: 3300
Heat Index: -1°   Visibility: 10mi
Dew Point: -5°   Wind: 10mph
Humidity: 72%   Direction: 150°SSE
Pressure: 30.08"   Gusts: NA
Location:  41.915°N, 77.8855°W
Report Text: KELZ 222056Z AUTO 15009KT 10SM BKN033 M01/M05 A3008 RMK AO2 SLP215 T10061050 55002
Loading
Personal Weather Stations






























Interactive Weather Map New forecast layout! Learn more

10-Day Weather Forecast

Advertisements
Track Severe Weather on mobile